Map

Track Data

SID SEASON NUMBER BASIN SUBBASIN NAME ISO_TIME NATURE LAT LON WMO_WIND WMO_PRES WMO_AGENCY TRACK_TYPE DIST2LAND LANDFALL IFLAG USA_AGENCY USA_ATCF_ID USA_LAT USA_LON USA_RECORD USA_STATUS USA_WIND USA_PRES USA_SSHS USA_R34_NE USA_R34_SE USA_R34_SW USA_R34_NW USA_R50_NE USA_R50_SE USA_R50_SW USA_R50_NW USA_R64_NE USA_R64_SE USA_R64_SW USA_R64_NW USA_POCI USA_ROCI USA_RMW USA_EYE TOKYO_LAT TOKYO_LON TOKYO_GRADE TOKYO_WIND TOKYO_PRES TOKYO_R50_DIR TOKYO_R50_LONG TOKYO_R50_SHORT TOKYO_R30_DIR TOKYO_R30_LONG TOKYO_R30_SHORT TOKYO_LAND CMA_LAT CMA_LON CMA_CAT CMA_WIND CMA_PRES HKO_LAT HKO_LON HKO_CAT HKO_WIND HKO_PRES NEWDELHI_LAT NEWDELHI_LON NEWDELHI_GRADE NEWDELHI_WIND NEWDELHI_PRES NEWDELHI_CI NEWDELHI_DP NEWDELHI_POCI REUNION_LAT REUNION_LON REUNION_TYPE REUNION_WIND REUNION_PRES REUNION_TNUM REUNION_CI REUNION_RMW REUNION_R34_NE REUNION_R34_SE REUNION_R34_SW REUNION_R34_NW REUNION_R50_NE REUNION_R50_SE REUNION_R50_SW REUNION_R50_NW REUNION_R64_NE REUNION_R64_SE REUNION_R64_SW REUNION_R64_NW BOM_LAT BOM_LON BOM_TYPE BOM_WIND BOM_PRES BOM_TNUM BOM_CI BOM_RMW BOM_R34_NE BOM_R34_SE BOM_R34_SW BOM_R34_NW BOM_R50_NE BOM_R50_SE BOM_R50_SW BOM_R50_NW BOM_R64_NE BOM_R64_SE BOM_R64_SW BOM_R64_NW BOM_ROCI BOM_POCI BOM_EYE BOM_POS_METHOD BOM_PRES_METHOD NADI_LAT NADI_LON NADI_CAT NADI_WIND NADI_PRES WELLINGTON_LAT WELLINGTON_LON WELLINGTON_WIND WELLINGTON_PRES DS824_LAT DS824_LON DS824_STAGE DS824_WIND DS824_PRES TD9636_LAT TD9636_LON TD9636_STAGE TD9636_WIND TD9636_PRES TD9635_LAT TD9635_LON TD9635_WIND TD9635_PRES TD9635_ROCI NEUMANN_LAT NEUMANN_LON NEUMANN_CLASS NEUMANN_WIND NEUMANN_PRES MLC_LAT MLC_LON MLC_CLASS MLC_WIND MLC_PRES USA_GUST BOM_GUST BOM_GUST_PER REUNION_GUST REUNION_GUST_PER USA_SEAHGT USA_SEARAD_NE USA_SEARAD_SE USA_SEARAD_SW USA_SEARAD_NW STORM_SPEED STORM_DIR
1885212N12337 1885 32 NA NA NOT_NAMED 1885-07-30 12:00:00 TS 11.5000 -23.0000 main 682 682 _____________O -1 11.5000 -23.0000 TD 30 16 289
1885212N12337 1885 32 NA NA NOT_NAMED 1885-07-30 15:00:00 TS 11.7504 -23.7497 main 745 745 _____________P -1 11.7504 -23.7497 TD 30 16 289
1885212N12337 1885 32 NA NA NOT_NAMED 1885-07-30 18:00:00 TS 12.0000 -24.5000 main 815 815 _____________O -1 12.0000 -24.5000 TD 30 16 289
1885212N12337 1885 32 NA NA NOT_NAMED 1885-07-30 21:00:00 TS 12.2498 -25.2501 main 889 885 _____________P -1 12.2498 -25.2501 TD 35 16 289
1885212N12337 1885 32 NA NA NOT_NAMED 1885-07-31 00:00:00 TS 12.5000 -26.0000 main 951 951 _____________O -1 12.5000 -26.0000 TS 40 16 289
1885212N12337 1885 32 NA NA NOT_NAMED 1885-07-31 03:00:00 TS 12.7498 -26.7501 main 1029 1027 _____________P -1 12.7498 -26.7501 TS 45 15 289
1885212N12337 1885 32 NA NA NOT_NAMED 1885-07-31 06:00:00 TS 13.0000 -27.5000 main 1096 1096 _____________O -1 13.0000 -27.5000 TS 50 15 290
1885212N12337 1885 32 NA NA NOT_NAMED 1885-07-31 09:00:00 TS 13.2719 -28.2125 main 1165 1165 _____________P -1 13.2719 -28.2125 TS 52 15 289
1885212N12337 1885 32 NA NA NOT_NAMED 1885-07-31 12:00:00 TS 13.5000 -29.0000 main 1247 1247 _____________O -1 13.5000 -29.0000 TS 55 17 282
1885212N12337 1885 32 NA NA NOT_NAMED 1885-07-31 15:00:00 TS 13.6300 -29.9627 main 1353 1353 _____________P -1 13.6300 -29.9627 TS 55 20 276
1885212N12337 1885 32 NA NA NOT_NAMED 1885-07-31 18:00:00 TS 13.7000 -31.0000 main 1460 1460 _____________O -1 13.7000 -31.0000 TS 55 20 274
1885212N12337 1885 32 NA NA NOT_NAMED 1885-07-31 21:00:00 TS 13.7571 -32.0001 main 1566 1566 _____________P -1 13.7571 -32.0001 TS 55 19 273
1885212N12337 1885 32 NA NA NOT_NAMED 1885-08-01 00:00:00 TS 13.8000 -33.0000 main 1674 1674 _____________O -1 13.8000 -33.0000 TS 55 19 273
1885212N12337 1885 32 NA NA NOT_NAMED 1885-08-01 03:00:00 TS 13.8496 -34.0000 main 1781 1781 _____________P -1 13.8496 -34.0000 TS 55 19 273
1885212N12337 1885 32 NA NA NOT_NAMED 1885-08-01 06:00:00 TS 13.9000 -35.0000 main 1888 1888 _____________O -1 13.9000 -35.0000 TS 55 20 273
1885212N12337 1885 32 NA NA NOT_NAMED 1885-08-01 09:00:00 TS 13.9426 -36.0450 main 1928 1908 _____________P -1 13.9426 -36.0450 TS 55 19 273
1885212N12337 1885 32 NA NA NOT_NAMED 1885-08-01 12:00:00 TS 14.0000 -37.0000 main 1908 1852 _____________O -1 14.0000 -37.0000 TS 55 17 275
1885212N12337 1885 32 NA NA NOT_NAMED 1885-08-01 15:00:00 TS 14.0993 -37.7449 main 1852 1797 _____________P -1 14.0993 -37.7449 TS 55 14 278
1885212N12337 1885 32 NA NA NOT_NAMED 1885-08-01 18:00:00 TS 14.2000 -38.4000 main 1797 1744 _____________O -1 14.2000 -38.4000 TS 55 13 277
1885212N12337 1885 32 NA NA NOT_NAMED 1885-08-01 21:00:00 TS 14.2573 -39.1001 main 1744 1686 _____________P -1 14.2573 -39.1001 TS 55 14 274
1885212N12337 1885 32 NA NA NOT_NAMED 1885-08-02 00:00:00 TS 14.3000 -39.8000 main 1686 1630 _____________O -1 14.3000 -39.8000 TS 55 14 274
1885212N12337 1885 32 NA NA NOT_NAMED 1885-08-02 03:00:00 TS 14.3499 -40.5075 main 1630 1583 _____________P -1 14.3499 -40.5075 TS 55 14 274
1885212N12337 1885 32 NA NA NOT_NAMED 1885-08-02 06:00:00 TS 14.4000 -41.2000 main 1583 1537 _____________O -1 14.4000 -41.2000 TS 55 13 274
1885212N12337 1885 32 NA NA NOT_NAMED 1885-08-02 09:00:00 TS 14.4424 -41.8801 main 1530 1495 _____________P -1 14.4424 -41.8801 TS 55 13 275
1885212N12337 1885 32 NA NA NOT_NAMED 1885-08-02 12:00:00 TS 14.5000 -42.5000 main 1495 1469 _____________O -1 14.5000 -42.5000 TS 55 11 278
1885212N12337 1885 32 NA NA NOT_NAMED 1885-08-02 15:00:00 TS 14.5922 -43.0225 main 1469 1444 _____________P -1 14.5922 -43.0225 TS 55 10 282
1885212N12337 1885 32 NA NA NOT_NAMED 1885-08-02 18:00:00 TS 14.7000 -43.5000 main 1444 1422 _____________O -1 14.7000 -43.5000 TS 55 10 282
1885212N12337 1885 32 NA NA NOT_NAMED 1885-08-02 21:00:00 TS 14.7999 -44.0000 main 1422 1401 _____________P -1 14.7999 -44.0000 TS 55 10 282
1885212N12337 1885 32 NA NA NOT_NAMED 1885-08-03 00:00:00 TS 14.9000 -44.5000 main 1401 1377 _____________O -1 14.9000 -44.5000 TS 55 10 282
1885212N12337 1885 32 NA NA NOT_NAMED 1885-08-03 03:00:00 TS 15.0074 -45.0000 main 1377 1353 _____________P -1 15.0074 -45.0000 TS 55 10 282
1885212N12337 1885 32 NA NA NOT_NAMED 1885-08-03 06:00:00 TS 15.1000 -45.5000 main 1353 1323 _____________O -1 15.1000 -45.5000 TS 55 10 278
1885212N12337 1885 32 NA NA NOT_NAMED 1885-08-03 09:00:00 TS 15.1425 -46.0152 main 1323 1303 _____________P -1 15.1425 -46.0152 TS 55 10 276
1885212N12337 1885 32 NA NA NOT_NAMED 1885-08-03 12:00:00 TS 15.2000 -46.5000 main 1303 1291 _____________O -1 15.2000 -46.5000 TS 55 9 282
1885212N12337 1885 32 NA NA NOT_NAMED 1885-08-03 15:00:00 TS 15.3349 -46.9225 main 1291 1285 _____________P -1 15.3349 -46.9225 TS 55 8 291
1885212N12337 1885 32 NA NA NOT_NAMED 1885-08-03 18:00:00 TS 15.5000 -47.3000 main 1290 1285 _____________O -1 15.5000 -47.3000 TS 55 8 294
1885212N12337 1885 32 NA NA NOT_NAMED 1885-08-03 21:00:00 TS 15.6499 -47.6501 main 1281 1281 _____________P -1 15.6499 -47.6501 TS 55 7 294
1885212N12337 1885 32 NA NA NOT_NAMED 1885-08-04 00:00:00 TS 15.8000 -48.0000 main 1287 1280 _____________O -1 15.8000 -48.0000 TS 55 8 293
1885212N12337 1885 32 NA NA NOT_NAMED 1885-08-04 03:00:00 TS 15.9575 -48.4000 main 1291 1283 _____________P -1 15.9575 -48.4000 TS 55 8 291
1885212N12337 1885 32 NA NA NOT_NAMED 1885-08-04 06:00:00 TS 16.1000 -48.8000 main 1285 1275 _____________O -1 16.1000 -48.8000 TS 55 8 288
1885212N12337 1885 32 NA NA NOT_NAMED 1885-08-04 09:00:00 TS 16.1849 -49.1502 main 1275 1266 _____________P -1 16.1849 -49.1502 TS 55 7 287
1885212N12337 1885 32 NA NA NOT_NAMED 1885-08-04 12:00:00 TS 16.3000 -49.5000 main 1272 1268 _____________O -1 16.3000 -49.5000 TS 55 8 296
1885212N12337 1885 32 NA NA NOT_NAMED 1885-08-04 15:00:00 TS 16.5350 -49.8999 main 1276 1276 _____________P -1 16.5350 -49.8999 TS 57 9 303
1885212N12337 1885 32 NA NA NOT_NAMED 1885-08-04 18:00:00 TS 16.8000 -50.3000 main 1292 1288 _____________O -1 16.8000 -50.3000 TS 60 9 303
1885212N12337 1885 32 NA NA NOT_NAMED 1885-08-04 21:00:00 TS 17.0074 -50.6502 main 1300 1300 _____________P -1 17.0074 -50.6502 TS 60 8 301
1885212N12337 1885 32 NA NA NOT_NAMED 1885-08-05 00:00:00 TS 17.2000 -51.0000 main 1301 1278 _____________O -1 17.2000 -51.0000 TS 60 8 299
1885212N12337 1885 32 NA NA NOT_NAMED 1885-08-05 03:00:00 TS 17.4000 -51.4000 main 1278 1257 _____________P -1 17.4000 -51.4000 TS 60 9 298
1885212N12337 1885 32 NA NA NOT_NAMED 1885-08-05 06:00:00 TS 17.6000 -51.8000 main 1257 1238 _____________O -1 17.6000 -51.8000 TS 60 8 298
1885212N12337 1885 32 NA NA NOT_NAMED 1885-08-05 09:00:00 TS 17.7774 -52.1577 main 1237 1227 _____________P -1 17.7774 -52.1577 TS 60 8 301
1885212N12337 1885 32 NA NA NOT_NAMED 1885-08-05 12:00:00 TS 18.0000 -52.5000 main 1227 1218 _____________O -1 18.0000 -52.5000 TS 60 9 310
1885212N12337 1885 32 NA NA NOT_NAMED 1885-08-05 15:00:00 TS 18.3275 -52.8575 main 1217 1217 _____________P -1 18.3275 -52.8575 TS 60 10 316
1885212N12337 1885 32 NA NA NOT_NAMED 1885-08-05 18:00:00 TS 18.7000 -53.2000 main 1226 1226 _____________O -1 18.7000 -53.2000 TS 60 10 320
1885212N12337 1885 32 NA NA NOT_NAMED 1885-08-05 21:00:00 TS 19.0499 -53.5077 main 1229 1229 _____________P -1 19.0499 -53.5077 TS 60 9 321
1885212N12337 1885 32 NA NA NOT_NAMED 1885-08-06 00:00:00 TS 19.4000 -53.8000 main 1243 1217 _____________O -1 19.4000 -53.8000 TS 60 9 322
1885212N12337 1885 32 NA NA NOT_NAMED 1885-08-06 03:00:00 TS 19.7574 -54.1001 main 1218 1189 _____________P -1 19.7574 -54.1001 TS 60 9 321
1885212N12337 1885 32 NA NA NOT_NAMED 1885-08-06 06:00:00 TS 20.1000 -54.4000 main 1190 1164 _____________O -1 20.1000 -54.4000 TS 60 8 319
1885212N12337 1885 32 NA NA NOT_NAMED 1885-08-06 09:00:00 TS 20.3849 -54.6854 main 1164 1139 _____________P -1 20.3849 -54.6854 TS 60 8 317
1885212N12337 1885 32 NA NA NOT_NAMED 1885-08-06 12:00:00 TS 20.7000 -55.0000 main 1139 1109 _____________O -1 20.7000 -55.0000 TS 60 10 318
1885212N12337 1885 32 NA NA NOT_NAMED 1885-08-06 15:00:00 TS 21.1201 -55.3925 main 1109 1081 _____________P -1 21.1201 -55.3925 TS 60 12 320
1885212N12337 1885 32 NA NA NOT_NAMED 1885-08-06 18:00:00 TS 21.6000 -55.8000 main 1084 1069 _____________O -1 21.6000 -55.8000 TS 60 12 324
1885212N12337 1885 32 NA NA NOT_NAMED 1885-08-06 21:00:00 TS 22.0998 -56.1503 main 1063 1031 _____________P -1 22.0998 -56.1503 TS 62 19 323
1885212N12337 1885 32 NA NA NOT_NAMED 1885-08-07 00:00:00 TS 23.1000 -57.0333 50 hurdat_atl main 1036 1013 O____________O hurdat_atl AL011885 24.1000 -58.1000 TS 50 0 22.6000 -56.5000 HU 65 21 319
1885212N12337 1885 32 NA NA NOT_NAMED 1885-08-07 03:00:00 TS 23.7101 -57.6612 main 1011 1004 P____________P AL011885 24.3702 -58.4222 TS 50 0 23.0500 -56.9002 HU 65 15 318
1885212N12337 1885 32 NA NA NOT_NAMED 1885-08-07 06:00:00 TS 24.2200 -58.1400 50 hurdat_atl main 1011 1003 O____________O hurdat_atl AL011885 24.7000 -58.7000 TS 50 0 23.5000 -57.3000 HU 65 13 324
1885212N12337 1885 32 NA NA NOT_NAMED 1885-08-07 09:00:00 TS 24.7515 -58.4911 main 1024 1024 P____________P AL011885 25.1274 -58.9077 TS 50 0 23.9999 -57.6577 HU 65 12 332
1885212N12337 1885 32 NA NA NOT_NAMED 1885-08-07 12:00:00 TS 25.2333 -58.7333 50 hurdat_atl main 1041 1041 O____________O hurdat_atl AL011885 25.6000 -59.1000 TS 50 0 24.5000 -58.0000 HU 65 11 333
1885212N12337 1885 32 NA NA NOT_NAMED 1885-08-07 15:00:00 TS 25.6858 -59.0193 main 1061 1055 P____________P AL011885 26.0500 -59.3500 TS 50 0 24.9575 -58.3577 HU 67 10 330
1885212N12337 1885 32 NA NA NOT_NAMED 1885-08-07 18:00:00 TS 26.1333 -59.3000 50 hurdat_atl main 1077 1077 O____________O hurdat_atl AL011885 26.5000 -59.6000 TS 50 0 25.4000 -58.7000 HU 70 10 332
1885212N12337 1885 32 NA NA NOT_NAMED 1885-08-07 21:00:00 TS 26.5833 -59.5460 main 1109 1104 P____________P AL011885 26.9500 -59.8152 TS 55 0 25.8499 -59.0078 HU 70 10 335
1885212N12337 1885 32 NA NA NOT_NAMED 1885-08-08 00:00:00 TS 27.0333 -59.7667 60 hurdat_atl main 1129 1129 O____________O hurdat_atl AL011885 27.4000 -60.0000 TS 60 0 26.3000 -59.3000 HU 70 10 337
1885212N12337 1885 32 NA NA NOT_NAMED 1885-08-08 03:00:00 TS 27.4858 -59.9719 main 1167 1167 P____________P AL011885 27.8500 -60.1577 TS 60 0 26.7574 -59.6002 HU 70 10 339
1885212N12337 1885 32 NA NA NOT_NAMED 1885-08-08 06:00:00 TS 27.9333 -60.1667 60 hurdat_atl main 1196 1196 O____________O hurdat_atl AL011885 28.3000 -60.3000 TS 60 0 27.2000 -59.9000 HU 70 9 337
1885212N12337 1885 32 NA NA NOT_NAMED 1885-08-08 09:00:00 TS 28.3292 -60.3819 main 1226 1226 P____________P AL011885 28.7275 -60.4650 TS 65 1 27.5325 -60.2156 HU 70 9 338
1885212N12337 1885 32 NA NA NOT_NAMED 1885-08-08 12:00:00 TS 28.8000 -60.5667 70 hurdat_atl main 1268 1268 O____________O hurdat_atl AL011885 29.2000 -60.6000 HU 70 1 28.0000 -60.5000 HU 70 12 346
1885212N12337 1885 32 NA NA NOT_NAMED 1885-08-08 15:00:00 TS 29.4475 -60.6868 main 1325 1325 P____________P AL011885 29.7550 -60.6726 HU 70 1 28.8324 -60.7151 HU 70 14 353
1885212N12337 1885 32 NA NA NOT_NAMED 1885-08-08 18:00:00 TS 30.2000 -60.7667 70 hurdat_atl main 1404 1404 O____________O hurdat_atl AL011885 30.4000 -60.7000 HU 70 1 29.8000 -60.9000 HU 70 16 355
1885212N12337 1885 32 NA NA NOT_NAMED 1885-08-08 21:00:00 TS 30.9883 -60.8386 main 1445 1369 P____________P AL011885 31.1575 -60.7077 HU 70 1 30.6500 -61.1004 HU 70 16 356
1885212N12337 1885 32 NA NA NOT_NAMED 1885-08-09 00:00:00 TS 31.7667 -60.9000 70 hurdat_atl main 1358 1291 O____________O hurdat_atl AL011885 31.9000 -60.7000 HU 70 1 31.5000 -61.3000 HU 70 15 356
1885212N12337 1885 32 NA NA NOT_NAMED 1885-08-09 03:00:00 TS 32.4333 -60.9741 main 1291 1216 P____________P AL011885 32.4500 -60.7073 HU 70 1 32.4000 -61.5076 HU 70 13 355
1885212N12337 1885 32 NA NA NOT_NAMED 1885-08-09 06:00:00 TS 33.1000 -61.0333 70 hurdat_atl main 1216 1139 O____________O hurdat_atl AL011885 33.0000 -60.7000 HU 70 1 33.3000 -61.7000 HU 70 990 14 356
1885212N12337 1885 32 NA NA NOT_NAMED 1885-08-09 09:00:00 TS 33.8507 -61.0989 main 1128 1054 P____________P AL011885 33.6975 -60.6721 HU 70 1 34.1572 -61.9525 HU 70 16 360
1885212N12337 1885 32 NA NA NOT_NAMED 1885-08-09 12:00:00 TS 34.6667 -61.0667 70 990 hurdat_atl main 1043 966 O____________O hurdat_atl AL011885 34.5000 -60.6000 HU 70 990 1 35.0000 -62.0000 HU 70 17 6
1885212N12337 1885 32 NA NA NOT_NAMED 1885-08-09 15:00:00 TS 35.5320 -60.9012 main 966 885 P____________P AL011885 35.3697 -60.5158 HU 70 985 1 35.8567 -61.6722 HU 70 18 14
1885212N12337 1885 32 NA NA NOT_NAMED 1885-08-09 18:00:00 TS 36.4333 -60.5333 70 981 hurdat_atl main 888 821 O____________O hurdat_atl AL011885 36.3000 -60.3000 HU 70 981 1 36.7000 -61.0000 HU 70 20 24
1885212N12337 1885 32 NA NA NOT_NAMED 1885-08-09 21:00:00 TS 37.3265 -59.9220 main 826 779 P____________P AL011885 37.2349 -59.8818 HU 70 1 37.5098 -60.0025 HU 70 21 31
1885212N12337 1885 32 NA NA NOT_NAMED 1885-08-10 00:00:00 TS 38.2333 -59.2000 70 hurdat_atl main 779 706 O____________O hurdat_atl AL011885 38.2000 -59.3000 HU 70 1 38.3000 -59.0000 HU 70 21 29
1885212N12337 1885 32 NA NA NOT_NAMED 1885-08-10 03:00:00 TS 39.1703 -58.6085 main 698 631 P____________P AL011885 39.2068 -58.6658 HU 70 1 39.0972 -58.4938 HU 70 21 28
1885212N12337 1885 32 NA NA NOT_NAMED 1885-08-10 06:00:00 TS 40.1000 -57.9333 70 hurdat_atl main 624 567 O____________O hurdat_atl AL011885 40.2000 -57.9000 HU 70 1 39.9000 -58.0000 HU 70 22 33
1885212N12337 1885 32 NA NA NOT_NAMED 1885-08-10 09:00:00 TS 41.0038 -57.0385 main 572 544 P____________P AL011885 41.1436 -57.0378 HU 70 1 40.7241 -57.0400 HU 70 23 40
1885212N12337 1885 32 NA NA NOT_NAMED 1885-08-10 12:00:00 TS 41.8333 -56.0000 70 983 hurdat_atl main 549 468 O____________O hurdat_atl AL011885 42.0000 -56.0000 HU 70 983 1 41.5000 -56.0000 HU 70 983 22 46
1885212N12337 1885 32 NA NA NOT_NAMED 1885-08-10 15:00:00 TS 42.5456 -54.9222 main 467 378 P____________P AL011885 42.7291 -54.7787 HU 75 1 42.1786 -55.2092 HU 70 981 21 50
1885212N12337 1885 32 NA NA NOT_NAMED 1885-08-10 18:00:00 MX 43.2000 -53.7667 80 hurdat_atl main 378 312 O____________O hurdat_atl AL011885 43.4000 -53.4000 HU 80 1 42.8000 -54.5000 EX 70 979 21 52
1885212N12337 1885 32 NA NA NOT_NAMED 1885-08-10 21:00:00 MX 43.8725 -52.6292 main 303 270 P____________P AL011885 44.1136 -51.9431 HU 80 1 43.3904 -54.0014 EX 67 22 54
1885212N12337 1885 32 NA NA NOT_NAMED 1885-08-11 00:00:00 MX 44.5333 -51.2667 80 hurdat_atl main 275 270 O____________O hurdat_atl AL011885 44.8000 -50.4000 HU 80 1 44.0000 -53.0000 EX 65 26 60
1885212N12337 1885 32 NA NA NOT_NAMED 1885-08-11 03:00:00 MX 45.1715 -49.4634 main 322 322 P____________P AL011885 45.4283 -48.8122 HU 80 1 44.6579 -50.7658 EX 62 29 65
1885212N12337 1885 32 NA NA NOT_NAMED 1885-08-11 06:00:00 MX 45.7667 -47.4667 80 hurdat_atl main 431 431 O____________O hurdat_atl AL011885 46.0000 -47.2000 HU 80 1 45.3000 -48.0000 EX 60 31 67
1885212N12337 1885 32 NA NA NOT_NAMED 1885-08-11 09:00:00 MX 46.3583 -45.4075 main 557 557 P____________P AL011885 46.5540 -45.4889 HU 80 1 45.9669 -45.2447 EX 60 28 68
1885212N12337 1885 32 NA NA NOT_NAMED 1885-08-11 12:00:00 MX 46.8333 -43.6667 80 hurdat_atl main 674 674 O____________O hurdat_atl AL011885 47.0000 -44.0000 HU 80 1 46.5000 -43.0000 EX 60 20 68
1885212N12337 1885 32 NA NA NOT_NAMED 1885-08-11 15:00:00 MX 47.1194 -42.6958 main 744 744 P____________P AL011885 47.2830 -43.0546 HU 75 1 46.7923 -41.9782 EX 57 12 66
1885212N12337 1885 32 NA NA NOT_NAMED 1885-08-11 18:00:00 MX 47.3333 -42.0333 70 hurdat_atl main 794 794 O____________O hurdat_atl AL011885 47.5000 -42.3000 HU 70 1 47.0000 -41.5000 EX 55 12 66
1885212N12337 1885 32 NA NA NOT_NAMED 1885-08-11 21:00:00 MX 47.5831 -41.1261 main 858 858 P____________P AL011885 47.7499 -41.3145 HU 70 1 47.2495 -40.7493 EX 55 13 68
1885212N12337 1885 32 NA NA NOT_NAMED 1885-08-12 00:00:00 MX 47.8333 -40.2000 70 hurdat_atl main 924 924 O____________O hurdat_atl AL011885 48.0000 -40.3000 HU 70 1 47.5000 -40.0000 EX 55 13 68
1885212N12337 1885 32 NA NA NOT_NAMED 1885-08-12 03:00:00 MX 48.0719 -39.3347 main 990 990 P____________P AL011885 48.2330 -39.3774 HU 70 1 47.7495 -39.2493 EX 55 13 67
1885212N12337 1885 32 NA NA NOT_NAMED 1885-08-12 06:00:00 MX 48.3333 -38.4333 70 hurdat_atl main 1056 1056 O____________O hurdat_atl AL011885 48.5000 -38.4000 HU 70 1 48.0000 -38.5000 EX 55 14 66
1885212N12337 1885 32 NA NA NOT_NAMED 1885-08-12 09:00:00 MX 48.6633 -37.3702 main 1129 1129 P____________P AL011885 48.8517 -37.1723 HU 70 1 48.2867 -37.7659 EX 55 15 65
1885212N12337 1885 32 NA NA NOT_NAMED 1885-08-12 12:00:00 MX 48.9667 -36.3333 70 hurdat_atl main 1210 1210 O____________O hurdat_atl AL011885 49.2000 -36.0000 HU 70 1 48.5000 -37.0000 EX 55 13 68
1885212N12337 1885 32 NA NA NOT_NAMED 1885-08-12 15:00:00 MX 49.1641 -35.5205 main 1268 1268 P____________P AL011885 49.4776 -35.1953 HU 70 1 48.5370 -36.1708 EX 55 11 72
1885212N12337 1885 32 NA NA NOT_NAMED 1885-08-12 18:00:00 MX 49.3000 -34.7667 70 hurdat_atl main 1306 1306 O____________O hurdat_atl AL011885 49.7000 -34.5000 HU 70 1 48.5000 -35.3000 EX 55 993 11 77
1885212N12337 1885 32 NA NA NOT_NAMED 1885-08-12 21:00:00 MX 49.3999 -33.8964 main 1320 1320 P____________P AL011885 49.8502 -33.6409 HU 65 1 48.4995 -34.4075 EX 52 11 80
1885212N12337 1885 32 NA NA NOT_NAMED 1885-08-13 00:00:00 MX 49.5000 -33.0333 60 hurdat_atl main 1336 1335 O____________O hurdat_atl AL011885 50.0000 -32.8000 TS 60 0 48.5000 -33.5000 EX 50 11 76
1885212N12337 1885 32 NA NA NOT_NAMED 1885-08-13 03:00:00 MX 49.6609 -32.2492 main 1340 1340 P____________P AL011885 50.2416 -32.0775 TS 60 0 48.4995 -32.5925 EX 47 10 71
1885212N12337 1885 32 NA NA NOT_NAMED 1885-08-13 06:00:00 MX 49.8333 -31.5000 60 hurdat_atl main 1354 1347 O____________O hurdat_atl AL011885 50.5000 -31.4000 TS 60 0 48.5000 -31.7000 EX 45 10 72
1885212N12337 1885 32 NA NA NOT_NAMED 1885-08-13 09:00:00 MX 49.9769 -30.6975 main 1362 1362 P____________P AL011885 50.7299 -30.6777 TS 60 0 48.4708 -30.7369 EX 42 10 75
1885212N12337 1885 32 NA NA NOT_NAMED 1885-08-13 12:00:00 MX 50.1000 -30.0000 60 hurdat_atl main 1368 1338 O____________O hurdat_atl AL011885 50.9000 -30.0000 TS 60 0 48.5000 -30.0000 EX 40 8 74
1885212N12337 1885 32 NA NA NOT_NAMED 1885-08-13 15:00:00 MX 50.1941 -29.5396 main 1331 1307 P____________P AL011885 50.9567 -29.4407 TS 60 0 48.6689 -29.7374 EX 40 6 69
1885212N12337 1885 32 NA NA NOT_NAMED 1885-08-13 18:00:00 MX 50.3000 -29.1667 60 hurdat_atl main 1307 1267 O____________O hurdat_atl AL011885 51.0000 -28.9000 TS 60 0 48.9000 -29.7000 EX 40 984 6 63
1885212N12337 1885 32 NA NA NOT_NAMED 1885-08-13 21:00:00 MX 50.4617 -28.7054 main 1267 1237 P____________P AL011885 51.1425 -28.2582 TS 55 0 49.0999 -29.5997 EX 35 7 61
1885212N12337 1885 32 NA NA NOT_NAMED 1885-08-14 00:00:00 ET 50.6333 -28.2333 50 hurdat_atl main 1231 1198 O____________O hurdat_atl AL011885 51.3000 -27.6000 EX 50 -4 49.3000 -29.5000 EX 30 7 62
1885212N12337 1885 32 NA NA NOT_NAMED 1885-08-14 03:00:00 ET 50.7737 -27.7879 main 1198 1168 P____________P AL011885 51.4068 -27.0068 EX 50 -4 49.5075 -29.3501 EX 30 6 65
1885212N12337 1885 32 NA NA NOT_NAMED 1885-08-14 06:00:00 ET 50.9000 -27.3333 50 hurdat_atl main 1161 1132 O____________O hurdat_atl AL011885 51.5000 -26.4000 EX 50 -4 49.7000 -29.2000 EX 30 6 68
1885212N12337 1885 32 NA NA NOT_NAMED 1885-08-14 09:00:00 ET 51.0193 -26.8381 main 1125 1095 P____________P AL011885 51.6005 -25.6701 EX 50 -4 49.8568 -29.1740 EX 27 7 70
1885212N12337 1885 32 NA NA NOT_NAMED 1885-08-14 12:00:00 ET 51.1333 -26.3333 50 hurdat_atl main 1089 1059 O____________O hurdat_atl AL011885 51.7000 -25.0000 EX 50 -4 50.0000 -29.0000 EX 25 7 70
1885212N12337 1885 32 NA NA NOT_NAMED 1885-08-14 15:00:00 ET 51.2473 -25.8399 main 1052 1021 P____________P AL011885 51.7919 -24.5395 EX 50 -4 50.1580 -28.4406 EX 25 6 69
1885212N12337 1885 32 NA NA NOT_NAMED 1885-08-14 18:00:00 ET 51.3667 -25.3667 50 hurdat_atl main 1021 992 O____________O hurdat_atl AL011885 51.9000 -24.2000 EX 50 -4 50.3000 -27.7000 EX 25 991 6 66
1885212N12337 1885 32 NA NA NOT_NAMED 1885-08-14 21:00:00 ET 51.4947 -24.9304 main 985 956 P____________P AL011885 52.0422 -23.8923 EX 45 -4 50.3997 -27.0066 EX 25 6 64
1885212N12337 1885 32 NA NA NOT_NAMED 1885-08-15 00:00:00 ET 51.6333 -24.5000 40 hurdat_atl main 956 926 O____________O hurdat_atl AL011885 52.2000 -23.6000 EX 40 -4 50.5000 -26.3000 EX 25 6 63
1885212N12337 1885 32 NA NA NOT_NAMED 1885-08-15 03:00:00 ET 51.7731 -24.0479 main 919 891 P____________P AL011885 52.3348 -23.2717 EX 40 -4 50.6496 -25.6002 EX 25 6 63
1885212N12337 1885 32 NA NA NOT_NAMED 1885-08-15 06:00:00 ET 51.9333 -23.5667 40 hurdat_atl main 891 855 O____________O hurdat_atl AL011885 52.5000 -22.9000 EX 40 -4 50.8000 -24.9000 EX 25 7 60
1885212N12337 1885 32 NA NA NOT_NAMED 1885-08-15 09:00:00 ET 52.1256 -23.0481 main 848 812 P____________P AL011885 52.7349 -22.4725 EX 40 -4 50.9071 -24.1994 EX 25 8 59
1885212N12337 1885 32 NA NA NOT_NAMED 1885-08-15 12:00:00 ET 52.3333 -22.5000 40 hurdat_atl main 812 778 O____________O hurdat_atl AL011885 53.0000 -22.0000 EX 40 -4 51.0000 -23.5000 EX 25 8 59
1885212N12337 1885 32 NA NA NOT_NAMED 1885-08-15 15:00:00 ET 52.5364 -21.9375 main 771 737 P____________P AL011885 53.2554 -21.5059 EX 40 -4 51.0983 -22.8008 EX 25 8 60
1885212N12337 1885 32 NA NA NOT_NAMED 1885-08-15 18:00:00 ET 52.7333 -21.3667 40 hurdat_atl main 737 O____________O hurdat_atl AL011885 53.5000 -21.0000 EX 40 -4 51.2000 -22.1000 EX 25 1004 8 60

About IBTrACS Database

This database is a web-friendly format of International Best Track Archive for Climate Stewardship (IBTrACS), a global best track data archive curated by NOAA dating back to 1842.

Updated: 2021-10-19